Time;durP1;ratioP1;P1;durP2;ratioP2;P2;SDS_P1;SDS_P2;PMS_P1;PMS_P2;Temp;Humidity;BMP_temperature;BMP_pressure;BME280_temperature;BME280_humidity;BME280_pressure;Samples;Min_cycle;Max_cycle;Signal;HPM_P1;HPM_P2
2022/09/20 00:01:32;;;;;;;5.47;1.10;;;11.40;99.90;;;;;;5116505;27;20417;-76
2022/09/20 00:04:03;;;;;;;6.15;0.90;;;11.40;99.90;;;;;;5134983;27;20035;-76
2022/09/20 00:06:31;;;;;;;13.07;1.60;;;11.40;99.90;;;;;;5134884;27;20040;-76
2022/09/20 00:08:58;;;;;;;4.65;1.45;;;11.50;99.90;;;;;;5133767;27;20470;-76
2022/09/20 00:11:30;;;;;;;5.80;1.42;;;11.50;99.90;;;;;;5133288;27;20131;-75
2022/09/20 00:13:58;;;;;;;8.07;1.60;;;11.50;99.90;;;;;;5116459;27;20031;-76
2022/09/20 00:16:33;;;;;;;6.90;1.45;;;11.50;99.90;;;;;;5134485;27;20032;-76
2022/09/20 00:19:02;;;;;;;5.82;1.23;;;11.60;99.90;;;;;;5133340;27;20039;-76
2022/09/20 00:21:30;;;;;;;4.13;1.30;;;11.60;99.90;;;;;;5134536;27;20060;-77
2022/09/20 00:23:56;;;;;;;6.82;1.40;;;11.60;99.90;;;;;;5115904;27;20053;-76
2022/09/20 00:26:23;;;;;;;8.48;1.40;;;11.70;99.90;;;;;;5131959;27;20047;-75
2022/09/20 00:28:50;;;;;;;4.82;1.42;;;11.70;99.90;;;;;;5115868;27;20091;-75
2022/09/20 00:31:17;;;;;;;7.68;1.10;;;11.70;99.90;;;;;;5115815;27;20035;-76
2022/09/20 00:36:28;;;;;;;6.85;1.30;;;11.70;99.90;;;;;;5132805;27;20038;-76
2022/09/20 00:38:56;;;;;;;8.10;1.85;;;11.70;99.90;;;;;;5132737;27;20491;-77
2022/09/20 00:41:22;;;;;;;7.32;1.25;;;11.70;99.90;;;;;;5134191;27;20035;-76
2022/09/20 00:43:50;;;;;;;3.15;1.00;;;11.70;99.90;;;;;;5133040;27;20031;-77
2022/09/20 00:46:24;;;;;;;5.68;1.30;;;11.70;99.90;;;;;;5133942;27;20046;-76
2022/09/20 00:49:04;;;;;;;10.73;1.70;;;11.80;99.90;;;;;;5132911;27;20375;-77
2022/09/20 00:51:34;;;;;;;7.07;1.10;;;11.80;99.90;;;;;;5132636;27;20517;-77
2022/09/20 00:54:03;;;;;;;7.20;1.42;;;11.80;99.90;;;;;;5132760;27;20039;-74
2022/09/20 00:56:33;;;;;;;8.43;1.63;;;11.80;99.90;;;;;;5145235;27;20054;-74
2022/09/20 00:59:15;;;;;;;5.75;1.00;;;11.90;99.90;;;;;;5135521;27;20125;-74
2022/09/20 01:01:49;;;;;;;4.75;1.05;;;11.90;99.90;;;;;;5154407;27;20041;-76
2022/09/20 01:04:19;;;;;;;3.55;0.88;;;11.90;99.90;;;;;;5154433;27;20114;-76
2022/09/20 01:06:47;;;;;;;7.55;1.45;;;12.00;99.90;;;;;;5135641;27;20034;-76
2022/09/20 01:09:14;;;;;;;4.72;1.23;;;12.00;99.90;;;;;;5135668;27;20044;-73
2022/09/20 01:11:40;;;;;;;6.07;1.17;;;12.00;99.90;;;;;;5135792;27;20042;-76
2022/09/20 01:14:07;;;;;;;5.13;0.93;;;12.00;99.90;;;;;;5118396;27;20042;-75
2022/09/20 01:16:33;;;;;;;9.73;1.42;;;12.10;99.90;;;;;;5135740;27;20031;-76
2022/09/20 01:19:09;;;;;;;6.43;1.30;;;12.10;99.90;;;;;;5153884;27;20046;-75
2022/09/20 01:21:36;;;;;;;3.38;0.77;;;12.10;99.90;;;;;;5118391;27;20039;-76
2022/09/20 01:24:19;;;;;;;6.20;0.95;;;12.20;99.90;;;;;;5154287;27;20031;-75
2022/09/20 01:26:56;;;;;;;5.63;1.02;;;12.20;99.90;;;;;;5115949;27;20039;-75
2022/09/20 01:29:39;;;;;;;7.75;1.13;;;12.10;99.90;;;;;;5118335;27;20043;-75
2022/09/20 01:32:11;;;;;;;4.93;1.30;;;12.10;99.90;;;;;;5118302;27;20046;-76
2022/09/20 01:34:46;;;;;;;5.28;1.08;;;12.10;99.90;;;;;;5118506;27;20444;-75
2022/09/20 01:37:35;;;;;;;5.82;0.73;;;12.10;99.90;;;;;;5135556;27;20056;-76
2022/09/20 01:40:16;;;;;;;6.90;1.58;;;12.10;99.90;;;;;;5134974;27;20545;-75
2022/09/20 01:42:53;;;;;;;5.35;0.88;;;12.10;99.90;;;;;;5135117;27;20493;-76
2022/09/20 01:45:30;;;;;;;7.50;0.98;;;12.10;99.90;;;;;;5118069;27;20042;-75
2022/09/20 01:48:36;;;;;;;5.95;0.80;;;12.10;99.90;;;;;;5135339;27;20038;-75
2022/09/20 01:51:21;;;;;;;5.72;1.10;;;12.10;99.90;;;;;;5135318;27;20122;-76
2022/09/20 01:54:23;;;;;;;5.30;1.00;;;12.00;99.90;;;;;;5153686;27;20469;-76
2022/09/20 01:57:07;;;;;;;1.92;0.75;;;12.00;99.90;;;;;;5150891;27;20097;-76
2022/09/20 02:00:11;;;;;;;5.68;0.80;;;12.00;99.90;;;;;;5114565;28;20452;-77
2022/09/20 02:03:15;;;;;;;6.18;1.27;;;11.90;99.90;;;;;;5114698;28;20078;-77
2022/09/20 02:06:11;;;;;;;6.57;0.95;;;11.90;99.90;;;;;;5114651;28;20058;-77
2022/09/20 02:08:48;;;;;;;3.17;0.88;;;11.90;99.90;;;;;;5131657;28;20047;-77
2022/09/20 02:11:32;;;;;;;3.50;1.10;;;11.80;99.90;;;;;;5097732;27;20046;-76
2022/09/20 02:14:13;;;;;;;4.72;1.00;;;11.80;99.90;;;;;;5118509;27;20057;-76
2022/09/20 02:16:44;;;;;;;2.47;0.80;;;11.70;99.90;;;;;;5101807;27;20039;-76
2022/09/20 02:19:25;;;;;;;4.43;0.77;;;11.70;99.90;;;;;;5136703;27;20035;-76
2022/09/20 02:22:35;;;;;;;9.90;2.00;;;11.70;99.90;;;;;;5118552;27;20039;-76
2022/09/20 02:25:13;;;;;;;2.55;0.70;;;11.60;99.90;;;;;;5036642;28;20033;-76
2022/09/20 02:28:14;;;;;;;5.35;0.90;;;11.60;99.90;;;;;;5110932;27;20301;-75
2022/09/20 02:31:06;;;;;;;5.15;1.00;;;11.60;99.90;;;;;;5118594;27;20399;-76
2022/09/20 02:33:56;;;;;;;3.67;1.10;;;11.60;99.90;;;;;;5118167;27;20075;-74
2022/09/20 02:36:50;;;;;;;5.80;0.90;;;11.60;99.90;;;;;;5117968;27;20074;-75
2022/09/20 02:42:59;;;;;;;6.47;0.82;;;11.60;99.90;;;;;;5118078;27;20045;-75
2022/09/20 02:45:47;;;;;;;5.13;0.80;;;11.60;99.90;;;;;;5118138;27;20469;-75
2022/09/20 02:48:16;;;;;;;3.78;0.77;;;11.70;99.90;;;;;;5136318;27;20035;-75
2022/09/20 02:51:07;;;;;;;4.87;0.80;;;11.70;99.90;;;;;;5100819;27;20035;-76
2022/09/20 02:54:00;;;;;;;4.65;0.88;;;11.70;99.90;;;;;;5117885;27;20268;-75
2022/09/20 02:56:46;;;;;;;5.30;1.00;;;11.70;99.90;;;;;;5115302;27;20043;-75
2022/09/20 02:59:39;;;;;;;2.80;0.80;;;11.70;99.90;;;;;;5117530;27;20125;-76
2022/09/20 03:02:43;;;;;;;3.00;0.73;;;11.70;99.90;;;;;;5117853;27;20043;-76
2022/09/20 03:05:24;;;;;;;6.13;1.20;;;11.70;99.90;;;;;;5117474;27;20439;-75
2022/09/20 03:08:17;;;;;;;4.13;0.80;;;11.70;99.90;;;;;;5117583;27;20039;-77
2022/09/20 03:11:08;;;;;;;6.28;0.90;;;11.70;99.90;;;;;;5135679;27;20047;-75
2022/09/20 03:14:00;;;;;;;3.03;0.77;;;11.70;99.90;;;;;;5117556;27;20051;-75
2022/09/20 03:16:48;;;;;;;4.05;0.82;;;11.70;99.90;;;;;;5117303;27;20270;-76
2022/09/20 03:19:47;;;;;;;6.45;1.33;;;11.70;99.90;;;;;;5117301;27;20082;-75
2022/09/20 03:22:28;;;;;;;3.95;0.90;;;11.80;99.90;;;;;;5116935;27;20031;-75
2022/09/20 03:25:12;;;;;;;4.93;0.80;;;11.80;99.90;;;;;;5117258;27;20632;-76
2022/09/20 03:27:49;;;;;;;5.68;0.98;;;11.80;99.90;;;;;;5114798;27;20049;-77
2022/09/20 03:30:40;;;;;;;5.65;1.10;;;11.70;99.90;;;;;;5135424;27;20539;-74
2022/09/20 03:33:28;;;;;;;4.00;0.88;;;11.70;99.90;;;;;;5117244;27;20042;-76
2022/09/20 03:36:16;;;;;;;2.60;0.63;;;11.70;99.90;;;;;;5117021;27;20126;-78
2022/09/20 03:38:47;;;;;;;3.53;0.77;;;11.70;99.90;;;;;;5135462;27;20039;-76
2022/09/20 03:41:31;;;;;;;6.13;1.50;;;11.70;99.90;;;;;;5116963;27;20043;-77
2022/09/20 03:44:00;;;;;;;6.93;1.45;;;11.60;99.90;;;;;;5116839;27;20546;-78
2022/09/20 03:46:45;;;;;;;4.03;1.00;;;11.60;99.90;;;;;;5135051;27;20031;-78
2022/09/20 03:49:42;;;;;;;3.50;1.05;;;11.60;99.90;;;;;;5116866;27;20039;-78
2022/09/20 03:52:40;;;;;;;5.07;1.08;;;11.60;99.90;;;;;;5135185;27;20114;-78
2022/09/20 03:55:09;;;;;;;8.63;0.90;;;11.60;99.90;;;;;;5078708;27;20131;-78
2022/09/20 03:57:45;;;;;;;4.72;0.80;;;11.60;99.90;;;;;;5097594;27;20039;-78
2022/09/20 04:00:26;;;;;;;4.57;1.00;;;11.50;99.90;;;;;;5099661;27;20035;-79
2022/09/20 04:03:11;;;;;;;3.42;1.00;;;11.50;99.90;;;;;;5134775;27;20039;-79
2022/09/20 04:05:39;;;;;;;3.00;1.00;;;11.50;99.90;;;;;;5116714;27;20394;-78
2022/09/20 04:08:43;;;;;;;2.13;0.68;;;11.50;99.90;;;;;;5116223;27;20126;-79
2022/09/20 04:11:50;;;;;;;4.32;0.82;;;11.50;99.90;;;;;;5116591;27;20429;-79
2022/09/20 04:14:58;;;;;;;6.30;1.00;;;11.40;99.90;;;;;;5095982;27;20050;-79
2022/09/20 04:17:44;;;;;;;4.45;1.10;;;11.30;99.90;;;;;;5116168;27;20042;-79
2022/09/20 04:20:19;;;;;;;2.33;1.00;;;11.30;99.90;;;;;;5116264;27;20031;-79
2022/09/20 04:22:50;;;;;;;7.13;1.52;;;11.20;99.90;;;;;;5116433;27;20043;-79
2022/09/20 04:25:28;;;;;;;8.48;1.23;;;11.20;99.90;;;;;;5116251;27;20043;-79
2022/09/20 04:28:07;;;;;;;5.43;1.38;;;11.20;99.90;;;;;;5132878;27;20522;-79
2022/09/20 04:30:42;;;;;;;5.97;1.60;;;11.10;99.90;;;;;;5116248;27;20372;-79
2022/09/20 04:33:33;;;;;;;10.25;2.05;;;11.10;99.90;;;;;;5134482;27;20110;-79
2022/09/20 04:36:33;;;;;;;5.75;1.10;;;11.10;99.90;;;;;;5115252;27;20082;-79
2022/09/20 04:39:07;;;;;;;4.18;0.88;;;11.10;99.90;;;;;;5115991;27;20055;-79
2022/09/20 04:41:50;;;;;;;3.50;1.38;;;11.00;99.90;;;;;;5098717;27;20043;-79
2022/09/20 04:44:37;;;;;;;4.50;1.10;;;11.00;99.90;;;;;;5115547;27;20047;-79
2022/09/20 04:55:05;;;;;;;5.57;1.30;;;11.10;99.90;;;;;;5114529;27;20046;-79
2022/09/20 04:57:52;;;;;;;6.22;1.70;;;11.00;99.90;;;;;;5113171;27;20100;-79
2022/09/20 05:00:22;;;;;;;4.03;1.15;;;11.00;99.90;;;;;;5115387;27;20047;-78
2022/09/20 05:03:25;;;;;;;2.15;1.00;;;11.00;99.90;;;;;;5115515;27;20042;-78
2022/09/20 05:06:14;;;;;;;6.35;1.27;;;11.10;99.90;;;;;;5115127;27;20035;-78
2022/09/20 05:09:03;;;;;;;6.57;1.20;;;11.10;99.90;;;;;;5098339;27;20031;-78
2022/09/20 05:11:45;;;;;;;5.97;1.58;;;11.10;99.90;;;;;;5104394;27;20126;-77
2022/09/20 05:14:37;;;;;;;6.53;1.40;;;11.10;99.90;;;;;;5115290;27;20394;-78
2022/09/20 05:17:36;;;;;;;3.92;1.30;;;11.10;99.90;;;;;;5115146;27;20035;-78
2022/09/20 05:20:24;;;;;;;7.03;1.58;;;11.10;99.90;;;;;;5115027;27;20077;-77
2022/09/20 05:23:17;;;;;;;4.50;1.63;;;11.10;99.90;;;;;;5133182;27;20039;-77
2022/09/20 05:25:55;;;;;;;7.00;1.60;;;11.10;99.90;;;;;;5113191;27;20036;-76
2022/09/20 05:28:43;;;;;;;7.05;1.52;;;11.10;99.90;;;;;;5115257;27;20075;-76
2022/09/20 05:31:27;;;;;;;5.35;1.58;;;11.10;99.90;;;;;;5114810;27;20156;-77
2022/09/20 05:34:02;;;;;;;8.00;1.80;;;11.20;99.90;;;;;;5114803;28;20061;-78
2022/09/20 05:36:46;;;;;;;5.85;1.85;;;11.20;99.90;;;;;;5133047;27;20376;-78
2022/09/20 05:39:51;;;;;;;5.35;1.27;;;11.20;99.90;;;;;;5133344;27;20395;-78
2022/09/20 05:42:48;;;;;;;3.90;1.20;;;11.20;99.90;;;;;;5103938;27;20134;-78
2022/09/20 05:45:32;;;;;;;4.18;1.20;;;11.20;99.90;;;;;;5114878;27;20046;-78
2022/09/20 05:48:21;;;;;;;5.72;1.67;;;11.20;99.90;;;;;;5115923;28;20421;-78
2022/09/20 05:50:56;;;;;;;6.05;2.33;;;11.20;99.90;;;;;;5114887;28;20394;-78
2022/09/20 05:53:22;;;;;;;4.93;1.75;;;11.20;99.90;;;;;;5097791;28;20436;-79
2022/09/20 05:56:13;;;;;;;5.45;3.40;;;11.30;99.90;;;;;;5112371;28;20188;-78
2022/09/20 05:59:15;;;;;;;3.78;1.67;;;11.30;99.90;;;;;;5124298;27;20058;-78
2022/09/20 06:02:15;;;;;;;9.00;2.10;;;11.30;99.90;;;;;;5153955;27;20550;-78
2022/09/20 06:05:02;;;;;;;3.63;0.80;;;11.30;99.90;;;;;;5117941;27;20123;-77
2022/09/20 06:07:35;;;;;;;7.82;1.25;;;11.40;99.90;;;;;;5118235;27;20057;-77
2022/09/20 06:10:46;;;;;;;5.35;1.15;;;11.40;99.90;;;;;;5135340;27;20352;-78
2022/09/20 06:13:15;;;;;;;;;;;11.40;99.90;;;;;;5131018;27;20377;-78
2022/09/20 06:16:04;;;;;;;4.88;1.40;;;11.40;99.90;;;;;;5117938;27;19922;-78
2022/09/20 06:26:34;;;;;;;5.47;1.48;;;11.60;99.90;;;;;;5147459;27;20444;-78
2022/09/20 06:29:05;;;;;;;8.25;3.92;;;11.70;99.90;;;;;;5134895;27;20482;-78
2022/09/20 06:31:31;;;;;;;7.07;1.30;;;11.80;99.90;;;;;;5117715;27;20038;-78
2022/09/20 06:34:02;;;;;;;3.17;1.15;;;12.00;99.90;;;;;;5134860;27;20043;-78
2022/09/20 06:42:22;;;;;;;4.53;0.90;;;12.10;99.90;;;;;;5134779;27;20041;-78
2022/09/20 06:44:48;;;;;;;3.25;0.90;;;12.20;99.90;;;;;;5134996;27;20035;-78
2022/09/20 06:47:15;;;;;;;4.95;0.90;;;12.20;99.90;;;;;;5117836;27;20038;-78
2022/09/20 06:49:46;;;;;;;4.70;1.27;;;12.20;99.90;;;;;;5117832;27;20042;-77
2022/09/20 06:52:18;;;;;;;4.07;1.10;;;12.20;99.90;;;;;;5134914;27;20452;-78
2022/09/20 06:54:45;;;;;;;5.70;1.20;;;12.20;99.90;;;;;;5138920;27;20046;-82
2022/09/20 06:57:18;;;;;;;4.05;1.20;;;12.20;99.90;;;;;;5133323;27;20093;-81
2022/09/20 06:59:47;;;;;;;6.30;1.20;;;12.30;99.90;;;;;;5136786;27;20074;-81
2022/09/20 07:02:12;;;;;;;4.22;1.27;;;12.40;99.90;;;;;;5137583;27;20490;-79
2022/09/20 07:04:38;;;;;;;6.00;1.42;;;12.40;99.90;;;;;;5138034;27;20045;-81
2022/09/20 07:07:06;;;;;;;4.20;1.10;;;12.60;99.90;;;;;;5156628;27;20272;-80
2022/09/20 07:09:32;;;;;;;3.50;0.95;;;12.70;99.90;;;;;;5156073;27;20072;-80
2022/09/20 07:11:58;;;;;;;6.97;1.65;;;12.70;99.90;;;;;;5153781;27;20042;-80
2022/09/20 07:14:25;;;;;;;6.13;2.28;;;12.80;99.90;;;;;;5120998;27;20050;-80
2022/09/20 07:16:52;;;;;;;6.75;1.10;;;12.80;99.90;;;;;;5120513;27;20039;-79
2022/09/20 07:19:18;;;;;;;6.13;1.42;;;12.70;99.90;;;;;;5156409;27;20143;-76
2022/09/20 07:21:44;;;;;;;6.80;1.05;;;12.70;99.90;;;;;;5157443;27;20474;-77
2022/09/20 07:24:13;;;;;;;4.57;1.02;;;12.70;99.90;;;;;;5157170;27;20042;-76
2022/09/20 07:26:54;;;;;;;10.68;1.30;;;12.80;99.90;;;;;;5155908;27;20031;-77
2022/09/20 07:29:20;;;;;;;;;;;12.90;99.90;;;;;;5153455;27;20065;-78
2022/09/20 07:31:46;;;;;;;3.63;0.80;;;13.00;99.90;;;;;;5127368;27;20367;-80
2022/09/20 07:34:12;;;;;;;7.15;1.17;;;13.10;99.90;;;;;;5145320;27;20492;-79
2022/09/20 07:36:38;;;;;;;6.13;0.90;;;13.20;99.90;;;;;;5157930;27;20043;-80
2022/09/20 07:39:04;;;;;;;7.95;1.77;;;13.30;99.90;;;;;;5138896;27;20121;-79
2022/09/20 07:41:30;;;;;;;5.35;1.00;;;13.40;99.90;;;;;;5138626;27;20046;-77
2022/09/20 07:44:19;;;;;;;4.45;0.93;;;13.50;99.90;;;;;;5157364;27;20110;-79
2022/09/20 07:46:44;;;;;;;5.95;1.27;;;13.50;99.90;;;;;;5138901;27;20042;-78
2022/09/20 07:49:11;;;;;;;4.65;0.90;;;13.70;99.90;;;;;;5139198;27;20035;-79
2022/09/20 07:51:36;;;;;;;5.63;0.98;;;13.80;99.90;;;;;;5157765;27;20027;-80
2022/09/20 07:54:02;;;;;;;3.58;1.17;;;13.80;99.90;;;;;;5138927;27;20467;-81
2022/09/20 07:56:28;;;;;;;5.03;1.38;;;13.80;99.90;;;;;;5119389;27;20181;-76
2022/09/20 07:58:54;;;;;;;7.95;1.52;;;13.80;99.90;;;;;;5156394;27;20057;-76
2022/09/20 08:01:21;;;;;;;6.00;1.15;;;13.80;99.90;;;;;;5137659;27;20065;-76
2022/09/20 08:03:47;;;;;;;6.65;1.15;;;13.90;99.90;;;;;;5131712;27;20047;-76
2022/09/20 08:06:15;;;;;;;7.28;1.10;;;13.90;99.90;;;;;;5155930;27;20042;-76
2022/09/20 08:08:41;;;;;;;5.85;0.80;;;14.10;99.90;;;;;;5155474;27;20499;-76
2022/09/20 08:11:13;;;;;;;6.93;1.65;;;14.20;99.90;;;;;;5137148;27;20110;-76
2022/09/20 08:13:49;;;;;;;4.88;1.15;;;14.30;99.90;;;;;;5137538;27;20049;-76
2022/09/20 08:16:16;;;;;;;5.07;1.00;;;14.30;99.90;;;;;;5137528;27;20058;-76
2022/09/20 08:18:51;;;;;;;3.72;1.10;;;14.30;99.90;;;;;;5156587;27;20039;-76
2022/09/20 08:21:18;;;;;;;6.30;0.95;;;14.60;99.90;;;;;;5137468;27;20045;-76
2022/09/20 08:23:49;;;;;;;3.13;0.82;;;14.80;99.90;;;;;;5137399;27;20046;-76
2022/09/20 08:26:17;;;;;;;4.45;1.13;;;14.70;99.90;;;;;;5118574;27;20043;-76
2022/09/20 08:28:51;;;;;;;3.78;0.95;;;14.70;99.90;;;;;;5137562;27;20039;-76
2022/09/20 08:31:19;;;;;;;8.05;1.25;;;14.60;99.90;;;;;;5156303;27;20052;-76
2022/09/20 08:33:47;;;;;;;4.05;0.95;;;14.50;99.90;;;;;;5155668;27;20084;-76
2022/09/20 08:36:16;;;;;;;8.18;1.45;;;14.70;99.90;;;;;;5119950;27;20478;-76
2022/09/20 08:38:42;;;;;;;4.10;1.20;;;15.40;99.90;;;;;;5137203;27;20045;-74
2022/09/20 08:41:26;;;;;;;7.82;2.47;;;16.40;99.90;;;;;;5120244;27;20486;-80
2022/09/20 08:43:57;;;;;;;5.50;1.30;;;17.50;99.90;;;;;;5138100;27;20059;-80
2022/09/20 08:46:38;;;;;;;5.93;1.27;;;18.20;99.90;;;;;;5156316;27;20123;-80
2022/09/20 08:49:06;;;;;;;4.72;1.25;;;18.80;99.90;;;;;;5156366;27;20070;-80
2022/09/20 08:51:37;;;;;;;4.72;0.90;;;19.30;99.90;;;;;;5137432;27;20050;-79
2022/09/20 08:54:09;;;;;;;6.82;1.45;;;19.70;99.90;;;;;;5120155;27;20053;-79
2022/09/20 08:56:36;;;;;;;4.65;1.02;;;20.10;99.90;;;;;;5131927;27;20441;-74
2022/09/20 08:59:03;;;;;;;3.47;0.80;;;20.40;99.90;;;;;;5116356;27;20130;-76
2022/09/20 09:01:31;;;;;;;3.38;0.80;;;20.50;99.90;;;;;;5115607;27;20043;-76
2022/09/20 09:04:16;;;;;;;6.07;1.30;;;20.60;99.90;;;;;;5115172;27;20475;-81
2022/09/20 09:06:45;;;;;;;3.00;0.63;;;20.80;99.90;;;;;;5132538;27;20033;-78
2022/09/20 09:09:18;;;;;;;5.82;0.80;;;21.10;99.90;;;;;;5125611;27;20122;-79
2022/09/20 09:11:46;;;;;;;5.72;1.30;;;21.30;99.90;;;;;;5132141;27;20127;-79
2022/09/20 09:14:48;;;;;;;4.82;0.77;;;21.40;99.90;;;;;;5132003;27;20049;-79
2022/09/20 09:17:23;;;;;;;2.75;0.65;;;21.30;98.70;;;;;;5115286;27;20066;-79
2022/09/20 09:19:51;;;;;;;3.33;0.80;;;21.00;98.60;;;;;;5132049;27;20035;-77
2022/09/20 09:22:34;;;;;;;3.75;1.00;;;20.50;98.10;;;;;;5131941;27;20039;-77
2022/09/20 09:25:07;;;;;;;3.22;0.70;;;20.10;97.20;;;;;;5132024;27;20095;-78
2022/09/20 09:27:34;;;;;;;4.65;1.02;;;20.20;96.80;;;;;;5129624;27;20065;-78
2022/09/20 09:29:59;;;;;;;2.70;0.63;;;20.00;96.80;;;;;;5133005;27;20088;-76
2022/09/20 09:32:30;;;;;;;2.65;0.73;;;19.50;97.00;;;;;;5131763;27;20074;-77
2022/09/20 09:35:17;;;;;;;2.70;0.90;;;18.90;97.10;;;;;;5133078;27;20547;-76
2022/09/20 09:37:55;;;;;;;3.85;0.90;;;18.30;97.80;;;;;;5131966;27;20047;-76
2022/09/20 09:40:23;;;;;;;5.82;0.75;;;17.70;98.30;;;;;;5133381;27;20194;-77
2022/09/20 09:42:58;;;;;;;2.88;0.60;;;17.30;99.30;;;;;;5131737;27;20046;-76
2022/09/20 09:45:29;;;;;;;4.63;0.80;;;17.00;99.90;;;;;;5131925;27;20035;-76
2022/09/20 09:47:57;;;;;;;3.53;0.70;;;16.70;99.90;;;;;;5132981;27;20035;-76
2022/09/20 09:50:29;;;;;;;5.20;1.13;;;16.40;99.90;;;;;;5133072;27;20039;-78
2022/09/20 09:53:01;;;;;;;4.45;0.95;;;16.10;99.90;;;;;;5131602;28;20043;-78
2022/09/20 09:55:56;;;;;;;4.25;0.75;;;15.80;99.90;;;;;;5137297;27;20523;-80
2022/09/20 09:58:35;;;;;;;5.75;1.45;;;15.40;99.90;;;;;;5153322;27;20423;-81
2022/09/20 10:01:05;;;;;;;4.78;1.02;;;15.10;99.90;;;;;;5153726;27;20087;-79
2022/09/20 10:03:48;;;;;;;;;;;15.00;99.90;;;;;;5155768;27;20027;-76
2022/09/20 10:06:25;;;;;;;5.55;1.00;;;14.90;99.90;;;;;;5136587;27;20350;-81
2022/09/20 10:09:46;;;;;;;3.63;1.15;;;14.90;99.90;;;;;;5155312;27;20114;-80
2022/09/20 10:12:36;;;;;;;4.45;0.60;;;14.90;99.90;;;;;;5136463;27;20081;-80
2022/09/20 10:15:12;;;;;;;4.18;0.73;;;15.00;99.90;;;;;;5136302;27;20046;-79
2022/09/20 10:17:59;;;;;;;4.35;1.13;;;15.10;99.90;;;;;;5119504;27;20039;-81
2022/09/20 10:20:56;;;;;;;5.35;0.90;;;15.30;99.90;;;;;;5136678;27;20039;-79
2022/09/20 10:23:40;;;;;;;5.30;0.98;;;15.40;99.90;;;;;;5071288;27;20046;-79
2022/09/20 10:26:48;;;;;;;6.63;1.10;;;15.60;99.90;;;;;;5115749;27;20473;-78
2022/09/20 10:29:37;;;;;;;5.55;1.13;;;15.90;99.90;;;;;;5134770;27;20091;-79
2022/09/20 10:32:44;;;;;;;4.10;0.90;;;16.30;99.90;;;;;;5136262;27;20042;-77
2022/09/20 10:35:37;;;;;;;4.47;0.82;;;17.70;99.90;;;;;;5158302;27;20431;-80
2022/09/20 10:38:27;;;;;;;4.53;1.08;;;19.00;99.90;;;;;;5157370;27;20167;-78
2022/09/20 10:43:56;;;;;;;3.33;0.68;;;20.80;99.90;;;;;;5157122;27;20371;-77
2022/09/20 10:46:28;;;;;;;5.47;1.00;;;21.30;99.90;;;;;;5138478;27;20042;-78
2022/09/20 10:49:26;;;;;;;3.38;0.77;;;21.70;99.90;;;;;;5156897;27;20465;-76
2022/09/20 10:52:20;;;;;;;4.57;1.00;;;21.80;97.80;;;;;;5156874;27;20117;-76
2022/09/20 10:55:19;;;;;;;3.95;0.65;;;21.30;97.60;;;;;;5121419;27;20125;-75
2022/09/20 10:57:57;;;;;;;1.85;0.52;;;20.40;96.90;;;;;;5136550;27;20383;-76
2022/09/20 11:00:44;;;;;;;3.70;0.80;;;19.50;97.50;;;;;;5157079;27;20050;-74
2022/09/20 11:03:13;;;;;;;3.92;0.75;;;19.00;98.60;;;;;;5138378;27;20110;-77
2022/09/20 11:06:00;;;;;;;3.28;1.10;;;19.00;99.30;;;;;;5156815;27;20034;-74
2022/09/20 11:08:31;;;;;;;5.32;0.90;;;18.40;99.90;;;;;;5120864;27;20034;-75
2022/09/20 11:11:20;;;;;;;4.07;0.90;;;17.60;99.90;;;;;;5138331;27;20039;-74
2022/09/20 11:14:15;;;;;;;4.75;1.00;;;16.90;99.90;;;;;;5138292;27;20030;-74
2022/09/20 11:16:51;;;;;;;5.38;0.82;;;16.40;99.90;;;;;;5156438;27;20053;-74
2022/09/20 11:19:30;;;;;;;3.42;0.70;;;16.10;99.90;;;;;;5137752;27;20541;-75
2022/09/20 11:22:07;;;;;;;6.68;0.90;;;15.90;99.90;;;;;;5137691;27;20533;-73
2022/09/20 11:24:58;;;;;;;6.38;1.08;;;15.80;99.90;;;;;;5137982;27;20034;-76
2022/09/20 11:27:50;;;;;;;7.68;1.23;;;15.80;99.90;;;;;;5135708;27;20085;-76
2022/09/20 11:30:19;;;;;;;3.70;0.77;;;15.80;99.90;;;;;;5156290;27;20049;-76
2022/09/20 11:33:04;;;;;;;4.57;0.90;;;15.90;99.90;;;;;;5137886;27;20065;-75
2022/09/20 11:35:34;;;;;;;3.75;0.90;;;16.00;99.90;;;;;;5136965;27;20304;-76
2022/09/20 11:38:13;;;;;;;5.22;0.70;;;16.20;99.90;;;;;;5120550;27;20398;-76
2022/09/20 11:40:46;;;;;;;5.13;1.23;;;16.30;99.90;;;;;;5155987;27;20042;-75
2022/09/20 11:43:15;;;;;;;5.28;1.30;;;16.40;99.90;;;;;;5120315;27;20046;-75
2022/09/20 11:45:43;;;;;;;4.87;1.07;;;16.50;99.90;;;;;;5137532;27;20121;-75
2022/09/20 11:48:22;;;;;;;4.25;0.90;;;16.50;99.90;;;;;;5155855;27;20077;-75
2022/09/20 11:51:10;;;;;;;5.45;1.00;;;16.60;99.90;;;;;;5155685;27;20078;-76
2022/09/20 11:54:04;;;;;;;5.95;1.40;;;17.10;99.90;;;;;;5137981;27;20050;-76
2022/09/20 11:56:34;;;;;;;7.05;1.58;;;17.20;99.90;;;;;;5135788;27;20383;-75
2022/09/20 11:59:01;;;;;;;;;;;17.10;99.90;;;;;;5110562;27;20100;-75
2022/09/20 12:01:31;;;;;;;2.85;0.88;;;17.40;99.90;;;;;;5117296;27;19919;-76
2022/09/20 12:04:22;;;;;;;4.75;1.08;;;17.80;99.90;;;;;;5147877;27;20093;-75
2022/09/20 12:06:57;;;;;;;;;;;18.30;99.90;;;;;;5138249;27;20490;-76
2022/09/20 12:09:33;;;;;;;3.10;0.93;;;18.70;99.90;;;;;;5137949;27;19915;-76
2022/09/20 12:12:14;;;;;;;4.65;1.00;;;18.90;99.90;;;;;;5137936;27;20043;-75
2022/09/20 12:14:41;;;;;;;3.67;0.93;;;18.90;99.90;;;;;;5137842;27;20035;-74
2022/09/20 12:17:44;;;;;;;5.35;0.85;;;18.90;99.90;;;;;;5137561;27;20042;-75
2022/09/20 12:20:37;;;;;;;4.25;0.80;;;18.90;99.90;;;;;;5155637;27;20045;-74
2022/09/20 12:23:38;;;;;;;4.30;0.50;;;18.80;99.90;;;;;;5137483;27;20047;-77
2022/09/20 12:26:15;;;;;;;3.13;0.80;;;18.60;99.90;;;;;;5135691;27;20038;-76
2022/09/20 12:28:50;;;;;;;5.18;0.80;;;18.50;99.90;;;;;;5117008;27;20058;-71
2022/09/20 12:31:24;;;;;;;5.82;1.33;;;18.30;99.90;;;;;;5116455;27;20041;-72
2022/09/20 12:34:14;;;;;;;5.93;0.95;;;18.10;99.90;;;;;;5116627;27;20039;-72
2022/09/20 12:36:43;;;;;;;;;;;17.90;99.90;;;;;;5135346;27;20054;-71
2022/09/20 12:39:12;;;;;;;3.97;0.77;;;17.90;99.90;;;;;;5116662;27;20007;-72
2022/09/20 12:41:56;;;;;;;4.28;1.10;;;17.90;99.90;;;;;;5116444;27;20041;-72
2022/09/20 12:44:24;;;;;;;3.78;1.27;;;18.10;99.90;;;;;;5116403;27;20035;-72
2022/09/20 12:46:58;;;;;;;4.57;1.08;;;18.10;99.90;;;;;;5099264;27;20039;-73
2022/09/20 12:52:49;;;;;;;4.28;0.77;;;17.70;99.90;;;;;;5116572;27;20035;-73
2022/09/20 12:55:39;;;;;;;7.35;1.10;;;17.70;99.90;;;;;;5125102;27;20038;-73
2022/09/20 13:00:41;;;;;;;8.73;1.20;;;17.70;99.90;;;;;;5148884;27;20039;-74
2022/09/20 13:03:30;;;;;;;4.40;0.80;;;17.70;99.90;;;;;;5154392;27;20041;-73
2022/09/20 13:06:09;;;;;;;3.23;0.50;;;17.60;99.90;;;;;;5154314;27;20536;-75
2022/09/20 13:08:49;;;;;;;6.47;1.17;;;17.50;99.90;;;;;;5118922;27;20042;-74
2022/09/20 13:11:36;;;;;;;5.63;1.33;;;17.40;99.90;;;;;;5135243;27;20046;-74
2022/09/20 13:14:10;;;;;;;3.15;0.68;;;17.30;99.90;;;;;;5135387;27;20042;-74
2022/09/20 13:16:36;;;;;;;5.85;0.75;;;17.40;99.90;;;;;;5131401;27;20398;-74
2022/09/20 13:19:28;;;;;;;4.25;0.80;;;17.40;99.90;;;;;;5150853;27;20039;-75
2022/09/20 13:22:04;;;;;;;3.83;0.90;;;17.30;99.90;;;;;;5114357;27;20054;-73
2022/09/20 13:24:40;;;;;;;3.22;0.70;;;17.40;99.90;;;;;;5127922;27;20035;-74
2022/09/20 13:27:10;;;;;;;2.60;0.60;;;17.50;99.90;;;;;;5113327;27;20072;-74
2022/09/20 13:29:42;;;;;;;5.03;0.73;;;17.50;99.90;;;;;;5116935;27;20424;-74
2022/09/20 13:32:18;;;;;;;5.65;1.23;;;17.40;99.90;;;;;;5133245;27;20106;-74
2022/09/20 13:34:44;;;;;;;4.00;1.00;;;17.30;99.90;;;;;;5155970;27;20088;-81
2022/09/20 13:37:20;;;;;;;3.80;0.70;;;17.20;99.90;;;;;;5139223;27;20446;-79
2022/09/20 13:40:04;;;;;;;3.35;0.80;;;17.10;99.90;;;;;;5150178;27;20038;-78
2022/09/20 13:42:34;;;;;;;5.20;0.77;;;17.00;99.90;;;;;;5153612;27;20096;-79
2022/09/20 13:45:03;;;;;;;5.38;0.80;;;17.00;99.90;;;;;;5148758;27;20110;-76
2022/09/20 13:47:31;;;;;;;5.88;1.02;;;17.00;99.90;;;;;;5129075;27;20499;-75
2022/09/20 13:50:17;;;;;;;3.17;0.60;;;16.90;99.90;;;;;;5128953;27;20039;-75
2022/09/20 13:52:46;;;;;;;3.35;0.80;;;16.90;99.90;;;;;;5152023;27;20049;-74
2022/09/20 13:55:42;;;;;;;4.35;0.80;;;16.90;99.90;;;;;;5131210;27;20057;-76
2022/09/20 13:58:17;;;;;;;3.30;0.75;;;16.90;99.90;;;;;;5108544;27;20035;-75
2022/09/20 14:00:59;;;;;;;6.20;0.80;;;16.80;99.90;;;;;;5117095;27;20394;-76
2022/09/20 14:03:27;;;;;;;5.50;0.98;;;16.70;99.90;;;;;;5151468;27;20390;-75
2022/09/20 14:06:06;;;;;;;3.65;0.60;;;16.60;99.90;;;;;;5136329;27;20058;-76
2022/09/20 14:08:51;;;;;;;2.72;0.68;;;16.60;99.90;;;;;;5139062;27;20042;-77
2022/09/20 14:11:21;;;;;;;4.35;1.05;;;16.50;99.90;;;;;;5152977;27;20117;-77
2022/09/20 14:13:50;;;;;;;6.38;1.00;;;16.30;99.90;;;;;;5131258;27;20057;-78
2022/09/20 14:16:17;;;;;;;5.25;0.80;;;16.20;99.90;;;;;;5140951;27;20049;-76
2022/09/20 14:18:47;;;;;;;6.32;1.10;;;16.10;99.90;;;;;;5127771;27;20169;-79
2022/09/20 14:21:19;;;;;;;4.68;0.85;;;16.10;99.90;;;;;;5132425;27;20034;-74
2022/09/20 14:24:05;;;;;;;3.83;0.60;;;16.10;99.90;;;;;;5133736;27;20096;-75